Time,TemperatureF,DewpointF,PressureIn,WindDirection,WindDirectionDegrees,WindSpeedMPH,WindSpeedGustMPH,Humidity,HourlyPrecipIn,Conditions,Clouds,dailyrainin,SoftwareType,DateUTC
2013-02-22 00:04:00,19.8,15.0,30.08,SE,146,0.0,1.0,82,0.00,,,0.00,weatherlink.com 1.10,2013-02-22 07:04:00,
2013-02-22 00:19:00,19.3,15.0,30.08,SSE,148,0.0,2.0,83,0.00,,,0.00,weatherlink.com 1.10,2013-02-22 07:19:00,
2013-02-22 00:34:00,19.3,15.0,30.08,SSE,148,0.0,0.0,83,0.00,,,0.00,weatherlink.com 1.10,2013-02-22 07:34:00,
2013-02-22 00:49:00,19.0,15.0,30.08,SSE,148,0.0,0.0,83,0.00,,,0.00,weatherlink.com 1.10,2013-02-22 07:49:00,
2013-02-22 01:04:00,18.4,14.0,30.08,SSE,149,0.0,2.0,84,0.00,,,0.00,weatherlink.com 1.10,2013-02-22 08:04:00,
2013-02-22 01:19:00,18.0,13.0,30.07,SSW,211,0.0,3.0,81,0.00,,,0.00,weatherlink.com 1.10,2013-02-22 08:19:00,
2013-02-22 01:34:00,17.5,13.0,30.07,SW,217,0.0,0.0,81,0.00,,,0.00,weatherlink.com 1.10,2013-02-22 08:34:00,
2013-02-22 01:49:00,16.8,12.0,30.06,SW,217,0.0,0.0,82,0.00,,,0.00,weatherlink.com 1.10,2013-02-22 08:49:00,
2013-02-22 02:04:00,16.4,12.0,30.05,SW,217,0.0,0.0,83,0.00,,,0.00,weatherlink.com 1.10,2013-02-22 09:04:00,
2013-02-22 02:19:00,16.1,12.0,30.04,SW,217,0.0,0.0,83,0.00,,,0.00,weatherlink.com 1.10,2013-02-22 09:19:00,
2013-02-22 02:35:00,15.4,11.0,30.05,SW,217,0.0,1.0,84,0.00,,,0.00,weatherlink.com 1.10,2013-02-22 09:35:00,
2013-02-22 02:49:00,15.2,11.0,30.04,SW,214,0.0,2.0,82,0.00,,,0.00,weatherlink.com 1.10,2013-02-22 09:49:00,
2013-02-22 03:04:00,15.2,11.0,30.04,SW,214,0.0,1.0,83,0.00,,,0.00,weatherlink.com 1.10,2013-02-22 10:04:00,
2013-02-22 03:19:00,15.0,11.0,30.05,South,182,0.0,4.0,83,0.00,,,0.00,weatherlink.com 1.10,2013-02-22 10:19:00,
2013-02-22 03:35:00,14.6,11.0,30.06,South,178,0.0,2.0,84,0.00,,,0.00,weatherlink.com 1.10,2013-02-22 10:35:00,
2013-02-22 03:49:00,14.2,10.0,30.05,South,178,0.0,2.0,84,0.00,,,0.00,weatherlink.com 1.10,2013-02-22 10:49:00,
2013-02-22 04:05:00,14.3,10.0,30.06,SSW,198,1.0,4.0,84,0.00,,,0.00,weatherlink.com 1.10,2013-02-22 11:05:00,
2013-02-22 04:20:00,14.4,10.0,30.06,SSW,197,1.0,3.0,84,0.00,,,0.00,weatherlink.com 1.10,2013-02-22 11:20:00,
2013-02-22 04:35:00,14.5,11.0,30.06,SSW,197,1.0,2.0,84,0.00,,,0.00,weatherlink.com 1.10,2013-02-22 11:35:00,
2013-02-22 04:50:00,14.7,11.0,30.06,SSW,197,0.0,1.0,84,0.00,,,0.00,weatherlink.com 1.10,2013-02-22 11:50:00,
2013-02-22 05:05:00,14.8,11.0,30.07,SSW,197,0.0,1.0,84,0.00,,,0.00,weatherlink.com 1.10,2013-02-22 12:05:00,
2013-02-22 05:20:00,14.6,11.0,30.07,SSW,197,0.0,0.0,84,0.00,,,0.00,weatherlink.com 1.10,2013-02-22 12:20:00,
2013-02-22 05:35:00,14.2,10.0,30.07,SSW,197,0.0,1.0,84,0.00,,,0.00,weatherlink.com 1.10,2013-02-22 12:35:00,
2013-02-22 05:50:00,13.9,10.0,30.08,SSW,197,0.0,1.0,84,0.00,,,0.00,weatherlink.com 1.10,2013-02-22 12:50:00,
2013-02-22 06:20:00,12.8,9.0,30.09,SSW,197,0.0,0.0,84,0.00,,,0.00,weatherlink.com 1.10,2013-02-22 13:20:00,
2013-02-22 06:35:00,12.4,9.0,30.09,SSW,197,0.0,0.0,86,0.00,,,0.00,weatherlink.com 1.10,2013-02-22 13:35:00,
2013-02-22 06:50:00,12.2,9.0,30.10,SSW,197,0.0,0.0,86,0.00,,,0.00,weatherlink.com 1.10,2013-02-22 13:50:00,
2013-02-22 07:05:00,12.7,10.0,30.11,SSW,197,0.0,1.0,87,0.00,,,0.00,weatherlink.com 1.10,2013-02-22 14:05:00,
2013-02-22 07:20:00,13.7,10.0,30.12,SSW,197,0.0,0.0,86,0.00,,,0.00,weatherlink.com 1.10,2013-02-22 14:20:00,
2013-02-22 07:35:00,14.6,11.0,30.13,SSW,197,0.0,1.0,85,0.00,,,0.00,weatherlink.com 1.10,2013-02-22 14:35:00,
2013-02-22 07:50:00,15.7,11.0,30.14,SSW,197,1.0,2.0,82,0.00,,,0.00,weatherlink.com 1.10,2013-02-22 14:50:00,
2013-02-22 08:05:00,17.0,12.0,30.14,WNW,287,0.0,3.0,80,0.00,,,0.00,weatherlink.com 1.10,2013-02-22 15:05:00,
2013-02-22 08:20:00,18.3,13.0,30.15,West,264,1.0,3.0,78,0.00,,,0.00,weatherlink.com 1.10,2013-02-22 15:20:00,
2013-02-22 08:35:00,19.7,13.0,30.16,WNW,292,0.0,4.0,76,0.00,,,0.00,weatherlink.com 1.10,2013-02-22 15:35:00,
2013-02-22 08:50:00,21.1,14.0,30.16,WNW,292,0.0,1.0,74,0.00,,,0.00,weatherlink.com 1.10,2013-02-22 15:50:00,
2013-02-22 09:05:00,22.3,14.0,30.16,WNW,292,0.0,1.0,69,0.00,,,0.00,weatherlink.com 1.10,2013-02-22 16:05:00,
2013-02-22 09:20:00,22.9,14.0,30.16,WNW,292,0.0,1.0,68,0.00,,,0.00,weatherlink.com 1.10,2013-02-22 16:20:00,
2013-02-22 09:36:00,22.9,13.0,30.16,West,273,0.0,1.0,67,0.00,,,0.00,weatherlink.com 1.10,2013-02-22 16:36:00,
2013-02-22 09:50:00,23.7,14.0,30.17,West,273,0.0,1.0,67,0.00,,,0.00,weatherlink.com 1.10,2013-02-22 16:50:00,
2013-02-22 10:05:00,24.1,14.0,30.16,East,86,2.0,4.0,65,0.00,,,0.00,weatherlink.com 1.10,2013-02-22 17:05:00,
2013-02-22 10:20:00,24.6,14.0,30.16,SSE,147,0.0,3.0,65,0.00,,,0.00,weatherlink.com 1.10,2013-02-22 17:20:00,
2013-02-22 10:35:00,26.5,16.0,30.16,SE,128,0.0,3.0,64,0.00,,,0.00,weatherlink.com 1.10,2013-02-22 17:35:00,
2013-02-22 10:50:00,27.7,16.0,30.16,South,180,1.0,3.0,62,0.00,,,0.00,weatherlink.com 1.10,2013-02-22 17:50:00,
2013-02-22 11:05:00,27.0,15.0,30.16,SSE,158,1.0,4.0,62,0.00,,,0.00,weatherlink.com 1.10,2013-02-22 18:05:00,
2013-02-22 11:20:00,28.1,16.0,30.16,South,169,0.0,3.0,62,0.00,,,0.00,weatherlink.com 1.10,2013-02-22 18:20:00,
2013-02-22 11:36:00,29.6,18.0,30.16,South,170,1.0,3.0,61,0.00,,,0.00,weatherlink.com 1.10,2013-02-22 18:36:00,
2013-02-22 11:51:00,30.4,17.0,30.15,NE,49,1.0,3.0,59,0.00,,,0.00,weatherlink.com 1.10,2013-02-22 18:51:00,
2013-02-22 12:06:00,30.5,18.0,30.15,ENE,72,0.0,3.0,59,0.00,,,0.00,weatherlink.com 1.10,2013-02-22 19:06:00,
2013-02-22 12:21:00,31.4,17.0,30.14,ENE,61,0.0,3.0,56,0.00,,,0.00,weatherlink.com 1.10,2013-02-22 19:21:00,
2013-02-22 12:36:00,31.3,17.0,30.13,NNW,344,0.0,4.0,56,0.00,,,0.00,weatherlink.com 1.10,2013-02-22 19:36:00,
2013-02-22 12:51:00,32.5,18.0,30.12,NNW,344,0.0,1.0,56,0.00,,,0.00,weatherlink.com 1.10,2013-02-22 19:51:00,
2013-02-22 13:06:00,32.7,18.0,30.11,NW,305,2.0,4.0,56,0.00,,,0.00,weatherlink.com 1.10,2013-02-22 20:06:00,
2013-02-22 13:21:00,33.2,17.0,30.11,SW,226,2.0,4.0,52,0.00,,,0.00,weatherlink.com 1.10,2013-02-22 20:21:00,
2013-02-22 13:36:00,33.0,17.0,30.11,ESE,112,0.0,4.0,52,0.00,,,0.00,weatherlink.com 1.10,2013-02-22 20:36:00,
2013-02-22 13:51:00,33.0,18.0,30.10,East,86,0.0,3.0,54,0.00,,,0.00,weatherlink.com 1.10,2013-02-22 20:51:00,
2013-02-22 14:06:00,32.8,18.0,30.10,ENE,61,0.0,3.0,55,0.00,,,0.00,weatherlink.com 1.10,2013-02-22 21:06:00,
2013-02-22 14:36:00,32.6,19.0,30.09,ESE,116,0.0,3.0,57,0.00,,,0.00,weatherlink.com 1.10,2013-02-22 21:36:00,
2013-02-22 14:51:00,32.3,19.0,30.09,WNW,288,2.0,5.0,58,0.00,,,0.00,weatherlink.com 1.10,2013-02-22 21:51:00,
2013-02-22 15:06:00,32.6,19.0,30.09,North,355,0.0,4.0,57,0.00,,,0.00,weatherlink.com 1.10,2013-02-22 22:06:00,
2013-02-22 15:21:00,32.6,19.0,30.09,WSW,244,1.0,4.0,58,0.00,,,0.00,weatherlink.com 1.10,2013-02-22 22:21:00,
2013-02-22 15:36:00,32.8,18.0,30.09,SE,142,2.0,5.0,54,0.00,,,0.00,weatherlink.com 1.10,2013-02-22 22:36:00,
2013-02-22 15:51:00,33.0,19.0,30.09,SSW,200,0.0,2.0,57,0.00,,,0.00,weatherlink.com 1.10,2013-02-22 22:51:00,
2013-02-22 16:06:00,32.8,20.0,30.09,SSW,192,3.0,4.0,59,0.00,,,0.00,weatherlink.com 1.10,2013-02-22 23:06:00,
2013-02-22 16:21:00,33.1,19.0,30.09,SSE,166,0.0,1.0,57,0.00,,,0.00,weatherlink.com 1.10,2013-02-22 23:21:00,
2013-02-22 16:36:00,33.5,20.0,30.09,South,169,0.0,2.0,57,0.00,,,0.00,weatherlink.com 1.10,2013-02-22 23:36:00,
2013-02-22 16:51:00,33.0,17.0,30.08,SE,144,1.0,1.0,53,0.00,,,0.00,weatherlink.com 1.10,2013-02-22 23:51:00,
2013-02-22 17:06:00,32.7,17.0,30.09,SE,144,0.0,2.0,53,0.00,,,0.00,weatherlink.com 1.10,2013-02-23 00:06:00,
2013-02-22 17:21:00,31.6,16.0,30.09,SE,144,0.0,0.0,53,0.00,,,0.00,weatherlink.com 1.10,2013-02-23 00:21:00,
2013-02-22 17:36:00,30.7,17.0,30.09,SE,144,0.0,0.0,58,0.00,,,0.00,weatherlink.com 1.10,2013-02-23 00:36:00,
2013-02-22 17:51:00,29.6,18.0,30.09,SE,144,0.0,0.0,61,0.00,,,0.00,weatherlink.com 1.10,2013-02-23 00:51:00,
2013-02-22 18:06:00,28.7,18.0,30.09,SE,144,0.0,0.0,65,0.00,,,0.00,weatherlink.com 1.10,2013-02-23 01:06:00,
2013-02-22 18:21:00,28.1,19.0,30.09,SE,144,0.0,2.0,69,0.00,,,0.00,weatherlink.com 1.10,2013-02-23 01:21:00,
2013-02-22 18:36:00,27.1,19.0,30.09,SE,144,0.0,0.0,70,0.00,,,0.00,weatherlink.com 1.10,2013-02-23 01:36:00,
2013-02-22 18:51:00,26.4,19.0,30.09,SE,144,0.0,1.0,74,0.00,,,0.00,weatherlink.com 1.10,2013-02-23 01:51:00,
2013-02-22 19:06:00,25.5,19.0,30.09,SE,144,0.0,0.0,75,0.00,,,0.00,weatherlink.com 1.10,2013-02-23 02:06:00,
2013-02-22 19:21:00,24.8,19.0,30.10,SE,144,0.0,1.0,77,0.00,,,0.00,weatherlink.com 1.10,2013-02-23 02:21:00,
2013-02-22 19:36:00,24.1,18.0,30.10,SE,144,0.0,0.0,77,0.00,,,0.00,weatherlink.com 1.10,2013-02-23 02:36:00,
2013-02-22 19:51:00,23.5,18.0,30.10,SSE,148,0.0,2.0,78,0.00,,,0.00,weatherlink.com 1.10,2013-02-23 02:51:00,
2013-02-22 20:06:00,22.9,17.0,30.10,SSE,148,0.0,1.0,79,0.00,,,0.00,weatherlink.com 1.10,2013-02-23 03:06:00,
2013-02-22 20:21:00,22.3,16.0,30.10,SW,215,1.0,3.0,77,0.00,,,0.00,weatherlink.com 1.10,2013-02-23 03:21:00,
2013-02-22 20:36:00,22.1,16.0,30.09,SW,227,0.0,3.0,78,0.00,,,0.00,weatherlink.com 1.10,2013-02-23 03:36:00,
2013-02-22 20:51:00,22.2,15.0,30.09,West,274,0.0,1.0,75,0.00,,,0.00,weatherlink.com 1.10,2013-02-23 03:51:00,
2013-02-22 21:06:00,22.7,16.0,30.09,SSW,196,0.0,4.0,74,0.00,,,0.00,weatherlink.com 1.10,2013-02-23 04:06:00,
2013-02-22 21:21:00,22.4,15.0,30.09,SSW,196,0.0,1.0,73,0.00,,,0.00,weatherlink.com 1.10,2013-02-23 04:21:00,
2013-02-22 21:36:00,22.0,15.0,30.09,SSW,198,0.0,2.0,73,0.00,,,0.00,weatherlink.com 1.10,2013-02-23 04:36:00,
2013-02-22 21:51:00,21.4,14.0,30.08,SSW,198,0.0,1.0,74,0.00,,,0.00,weatherlink.com 1.10,2013-02-23 04:51:00,
2013-02-22 22:06:00,21.4,14.0,30.08,SSW,198,0.0,1.0,74,0.00,,,0.00,weatherlink.com 1.10,2013-02-23 05:06:00,
2013-02-22 22:21:00,21.3,14.0,30.08,SSW,198,0.0,2.0,72,0.00,,,0.00,weatherlink.com 1.10,2013-02-23 05:21:00,
2013-02-22 22:36:00,20.4,13.0,30.07,SSW,198,0.0,1.0,73,0.00,,,0.00,weatherlink.com 1.10,2013-02-23 05:36:00,
2013-02-22 23:06:00,18.5,13.0,30.07,WNW,292,0.0,3.0,78,0.00,,,0.00,weatherlink.com 1.10,2013-02-23 06:06:00,
2013-02-22 23:36:00,17.5,12.0,30.06,NNW,346,0.0,4.0,80,0.00,,,0.00,weatherlink.com 1.10,2013-02-23 06:36:00,
2013-02-22 23:51:00,17.7,13.0,30.05,WSW,244,0.0,4.0,83,0.00,,,0.00,weatherlink.com 1.10,2013-02-23 06:51:00,